Latest Weather Observations for Kalumburu

IDW60801

Issued at 3:03 pm WST Sunday 31 July 2016 (issued every 30 minutes, with the page automatically refreshed every 10 minutes)

About weather observations | Map of weather stations | Latest weather observations for WA | Other Formats
Station Details ID: 001019 Name: KALUMBURU Lat: -14.30 Lon: 126.65 Height: 23.0 m
Data from the previous 72 hours. | See also: Recent months at Kalumburu
Date/Time
WST
Temp
°C
App
Temp
°C
Dew
Point
°C
Rel
Hum
%
Delta-T
°C
Wind Press
QNH
hPa
Press
MSL
hPa
Rain since
9am
mm
Dir  Spd
km/h
Gust
km/h
Spd
kts
Gust
kts
31/03:00pm 34.2 30.1 -3.2 9 17.5 ENE 9 13 5 7 1010.1 1010.0 0.0
31/02:30pm 34.1 30.5 -1.8 10 17.1 SE 7 13 4 7 1010.0 1009.9 0.0
31/02:00pm 34.8 31.1 -2.7 9 17.7 NW 7 13 4 7 1010.4 1010.3 0.0
31/01:30pm 34.0 30.0 -1.9 10 17.1 S 9 15 5 8 1010.7 1010.6 0.0
31/01:00pm 33.5 29.1 -2.3 10 16.9 NE 11 17 6 9 1011.2 1011.1 0.0
31/12:30pm 33.2 29.0 -1.2 11 16.5 ESE 11 22 6 12 1011.7 1011.6 0.0
31/12:00pm 33.7 29.9 -0.8 11 16.7 SE 9 20 5 11 1012.1 1012.0 0.0
31/11:30am 33.1 28.1 -1.3 11 16.4 ESE 15 20 8 11 1012.6 1012.5 0.0
31/11:00am 32.6 27.4 -2.9 10 16.4 E 15 24 8 13 1013.2 1013.1 0.0
31/10:30am 32.7 28.0 -1.6 11 16.3 ESE 13 20 7 11 1013.8 1013.7 0.0
31/10:00am 30.9 26.0 -3.0 11 15.5 SE 13 20 7 11 1014.4 1014.3 0.0
31/09:30am 30.2 25.4 -2.3 12 14.9 SE 13 20 7 11 1014.7 1014.6 0.0
31/09:00am 27.2 23.6 0.8 18 12.5 SSW 9 17 5 9 1015.0 1014.9 0.0
31/08:30am 25.5 22.5 4.0 25 10.7 S 9 15 5 8 1015.1 1015.0 0.0
31/08:00am 22.5 19.9 5.9 34 8.4 SSW 9 13 5 7 1014.9 1014.8 0.0
31/07:30am 20.7 18.4 7.3 42 6.9 SSW 9 13 5 7 1014.7 1014.6 0.0
31/07:00am 18.8 16.1 7.3 47 5.8 SSW 11 17 6 9 1014.5 1014.4 0.0
31/06:30am 17.5 14.6 6.4 48 5.5 SSW 11 15 6 8 1014.3 1014.2 0.0
31/06:00am 17.5 15.2 7.3 51 5.1 S 9 15 5 8 1014.0 1013.9 0.0
31/05:30am 15.7 14.2 9.1 65 3.4 S 7 11 4 6 1013.7 1013.6 0.0
31/05:00am 13.3 11.5 8.0 70 2.6 S 7 11 4 6 1013.5 1013.4 0.0
31/04:30am 11.6 10.9 6.9 73 2.2 CALM 0 0 0 0 1013.4 1013.3 0.0
31/04:00am 11.8 10.0 7.3 74 2.2 S 6 9 3 5 1013.4 1013.3 0.0
31/03:30am 12.2 11.0 6.5 68 2.7 S 2 7 1 4 1013.3 1013.2 0.0
31/03:00am 12.5 11.6 6.1 65 3.0 CALM 0 4 0 2 1013.3 1013.2 0.0
31/02:30am 12.4 11.5 6.2 66 2.9 CALM 0 0 0 0 1013.2 1013.1 0.0
31/02:00am 12.8 11.9 5.9 63 3.3 CALM 0 6 0 3 1013.2 1013.1 0.0
31/01:30am 12.8 11.9 6.2 64 3.1 CALM 0 0 0 0 1013.3 1013.2 0.0
31/01:00am 12.3 10.6 6.1 66 2.9 S 4 9 2 5 1013.4 1013.3 0.0
31/12:30am 12.9 11.9 5.8 62 3.3 CALM 0 0 0 0 1013.5 1013.4 0.0
31/12:00am 13.3 12.4 5.9 61 3.5 CALM 0 0 0 0 1013.7 1013.6 0.0
 
Date/Time
WST
Temp
°C
App
Temp
°C
Dew
Point
°C
Rel
Hum
%
Delta-T
°C
Wind Press
QNH
hPa
Press
MSL
hPa
Rain since
9am
mm
Dir  Spd
km/h
Gust
km/h
Spd
kts
Gust
kts
30/11:30pm 14.0 13.1 6.1 59 3.8 CALM 0 0 0 0 1013.8 1013.7 0.0
30/11:00pm 14.8 13.9 5.9 55 4.3 CALM 0 0 0 0 1014.0 1013.9 0.0
30/10:30pm 15.4 14.1 5.9 53 4.6 ENE 2 9 1 5 1014.0 1013.9 0.0
30/10:00pm 16.1 14.7 5.4 49 5.1 SE 2 9 1 5 1014.0 1013.9 0.0
30/09:30pm 17.5 16.5 5.4 45 5.8 CALM 0 0 0 0 1014.1 1014.0 0.0
30/09:00pm 18.5 17.5 5.7 43 6.3 CALM 0 0 0 0 1014.0 1013.9 0.0
30/08:30pm 20.4 19.2 6.4 40 7.0 SW 2 7 1 4 1014.1 1014.0 0.0
30/08:00pm 22.2 20.8 3.8 30 8.9 CALM 0 0 0 0 1013.7 1013.6 0.0
30/07:30pm 24.0 21.2 3.3 26 10.1 WNW 7 9 4 5 1013.4 1013.3 0.0
30/07:00pm 26.1 23.1 2.1 21 11.6 NE 7 13 4 7 1013.0 1012.9 0.0
30/06:30pm 27.0 23.8 2.8 21 11.9 ENE 9 13 5 7 1012.5 1012.4 0.0
30/06:00pm 24.7 23.1 4.5 27 10.1 E 2 6 1 3 1012.0 1011.9 0.0
30/05:30pm 26.5 25.4 8.5 32 9.8 E 4 11 2 6 1011.5 1011.4 0.0
30/05:00pm 29.4 28.5 7.9 26 11.7 W 2 6 1 3 1011.1 1011.0 0.0
30/04:30pm 32.1 29.4 0.2 13 15.5 ENE 4 11 2 6 1010.9 1010.8 0.0
30/04:00pm 32.3 28.7 0.4 13 15.6 SSE 9 15 5 8 1010.7 1010.6 0.0
30/03:30pm 32.5 28.5 0.6 13 15.7 SE 11 20 6 11 1010.6 1010.5 0.0
30/03:00pm 33.3 30.0 0.1 12 16.3 SSE 7 15 4 8 1010.7 1010.6 0.0
30/02:30pm 33.5 29.8 0.2 12 16.3 ESE 9 19 5 10 1010.8 1010.7 0.0
30/02:00pm 32.8 28.3 -0.3 12 16.1 E 13 20 7 11 1011.0 1010.9 0.0
30/01:30pm 32.7 28.7 0.7 13 15.8 ESE 11 22 6 12 1011.3 1011.2 0.0
30/01:00pm 33.2 28.9 1.1 13 16.0 NE 13 20 7 11 1011.6 1011.5 0.0
30/12:30pm 32.8 28.7 -0.3 12 16.0 E 11 20 6 11 1012.3 1012.2 0.0
30/12:00pm 32.9 28.8 -0.2 12 16.1 E 11 24 6 13 1012.9 1012.8 0.0
30/11:30am 32.1 26.6 -2.0 11 16.0 E 17 26 9 14 1013.7 1013.6 0.0
30/11:00am 31.5 26.7 -2.5 11 15.7 ESE 13 24 7 13 1014.3 1014.2 0.0
30/10:30am 30.8 25.3 -1.9 12 15.2 ESE 17 32 9 17 1014.7 1014.6 0.0
30/10:00am 30.5 25.2 -3.3 11 15.3 ESE 15 30 8 16 1015.0 1014.9 0.0
30/09:30am 29.6 23.6 -2.8 12 14.7 SE 19 35 10 19 1015.2 1015.1 0.0
30/09:00am 28.3 22.5 -1.7 14 13.7 ESE 19 33 10 18 1015.3 1015.2 0.0
30/08:30am 27.4 22.0 -1.5 15 13.2 SE 17 32 9 17 1015.4 1015.3 0.0
30/08:00am 26.6 22.1 -0.4 17 12.5 SE 13 24 7 13 1015.3 1015.2 0.0
30/07:30am 25.1 21.1 0.6 20 11.4 SE 11 22 6 12 1015.2 1015.1 0.0
30/07:00am 22.1 19.0 3.7 30 8.9 SW 9 11 5 6 1015.1 1015.0 0.0
30/06:30am 19.9 17.1 3.2 33 7.9 SW 7 11 4 6 1014.8 1014.7 0.0
30/06:00am 19.7 16.6 3.4 34 7.7 SW 9 13 5 7 1014.5 1014.4 0.0
30/05:30am 19.8 16.9 4.7 37 7.3 SW 9 13 5 7 1014.1 1014.0 0.0
30/05:00am 19.4 16.7 5.5 40 6.8 SSW 9 11 5 6 1013.8 1013.7 0.0
30/04:30am 18.8 16.5 5.6 42 6.5 SW 7 11 4 6 1013.6 1013.5 0.0
30/04:00am 15.7 13.8 7.7 59 4.0 SW 7 11 4 6 1013.4 1013.3 0.0
30/03:30am 16.7 14.4 5.6 48 5.4 SW 7 9 4 5 1013.4 1013.3 0.0
30/03:00am 14.7 12.5 6.0 56 4.2 SSW 7 11 4 6 1013.5 1013.4 0.0
30/02:30am 14.2 12.2 6.1 58 3.9 SSW 6 9 3 5 1013.5 1013.4 0.0
30/02:00am 15.1 13.1 6.9 58 4.0 SSW 7 9 4 5 1013.7 1013.6 0.0
30/01:30am 16.0 14.9 5.3 49 5.1 CALM 0 0 0 0 1013.8 1013.7 0.0
30/01:00am 17.1 16.2 6.0 48 5.4 CALM 0 0 0 0 1013.8 1013.7 0.0
30/12:30am 17.2 15.5 5.8 47 5.5 SSW 4 7 2 4 1014.1 1014.0 0.0
30/12:00am 18.1 16.0 5.7 44 6.1 SSE 6 7 3 4 1014.2 1014.1 0.0
 
Date/Time
WST
Temp
°C
App
Temp
°C
Dew
Point
°C
Rel
Hum
%
Delta-T
°C
Wind Press
QNH
hPa
Press
MSL
hPa
Rain since
9am
mm
Dir  Spd
km/h
Gust
km/h
Spd
kts
Gust
kts
29/11:30pm 19.5 17.9 6.3 42 6.6 S 4 7 2 4 1014.5 1014.4 0.0
29/11:00pm 21.1 18.5 4.2 33 8.2 WSW 7 9 4 5 1014.5 1014.4 0.0
29/10:30pm 20.2 18.2 4.3 35 7.7 WSW 4 7 2 4 1014.5 1014.4 0.0
29/10:00pm 21.2 19.9 4.3 33 8.2 CALM 0 0 0 0 1014.8 1014.7 0.0
29/09:30pm 22.4 20.2 3.5 29 9.1 ESE 4 7 2 4 1014.9 1014.8 0.0
29/09:00pm 24.4 21.3 3.7 26 10.2 ESE 9 13 5 7 1015.0 1014.9 0.0
29/08:30pm 25.3 21.9 3.9 25 10.6 ESE 11 15 6 8 1014.7 1014.6 0.0
29/08:00pm 24.9 21.5 4.1 26 10.3 ESE 11 17 6 9 1014.6 1014.5 0.0
29/07:30pm 24.6 21.7 4.4 27 10.1 ESE 9 15 5 8 1014.4 1014.3 0.0
29/07:00pm 22.6 20.0 4.2 30 9.0 ESE 7 9 4 5 1014.1 1014.0 0.0
29/06:30pm 22.9 21.6 3.9 29 9.3 CALM 0 0 0 0 1013.6 1013.5 0.0
29/06:00pm 24.3 22.1 3.6 26 10.1 SE 4 7 2 4 1013.0 1012.9 0.0
29/05:30pm 26.6 24.1 3.8 23 11.4 SSE 6 7 3 4 1012.7 1012.6 0.0
29/05:00pm 29.2 26.3 2.5 18 13.3 SSE 7 11 4 6 1012.2 1012.1 0.0
29/04:30pm 30.8 27.3 1.2 15 14.5 SE 9 17 5 9 1012.0 1011.9 0.0
29/04:00pm 31.6 27.8 1.8 15 14.8 E 11 20 6 11 1011.9 1011.8 0.0
29/03:30pm 32.4 28.7 2.5 15 15.1 E 11 17 6 9 1011.7 1011.6 0.0
29/03:00pm 32.4 29.1 2.5 15 15.2 ENE 9 19 5 10 1011.8 1011.7 0.0
29/02:30pm 32.5 28.1 2.5 15 15.2 E 15 24 8 13 1011.8 1011.7 0.0
29/02:00pm 32.1 27.6 2.2 15 15.0 SE 15 22 8 12 1011.9 1011.8 0.0
29/01:30pm 32.4 28.3 2.5 15 15.1 ESE 13 20 7 11 1012.3 1012.2 0.0
29/01:00pm 32.6 27.8 2.6 15 15.2 E 17 28 9 15 1012.7 1012.6 0.0
29/12:30pm 31.9 27.4 2.1 15 14.9 ESE 15 24 8 13 1013.1 1013.0 0.0
29/12:00pm 31.8 27.5 1.0 14 15.2 SE 13 24 7 13 1013.6 1013.5 0.0
29/11:30am 32.1 27.6 2.2 15 15.0 ESE 15 28 8 15 1014.1 1014.0 0.0
29/11:00am 31.0 26.0 1.4 15 14.6 E 17 30 9 16 1014.7 1014.6 0.0
29/10:30am 30.5 25.8 1.0 15 14.4 SE 15 26 8 14 1015.0 1014.9 0.0
29/10:00am 29.7 24.7 1.2 16 13.9 ESE 17 30 9 16 1015.5 1015.4 0.0
29/09:30am 29.4 24.6 0.1 15 14.0 ESE 15 26 8 14 1015.8 1015.7 0.0
29/09:00am 28.7 23.9 0.4 16 13.5 ESE 15 32 8 17 1015.8 1015.7 0.0
29/08:30am 26.8 21.1 0.5 18 12.4 SE 20 35 11 19 1016.0 1015.9 0.0
29/08:00am 25.8 20.0 -0.3 18 12.0 SE 20 35 11 19 1015.9 1015.8 0.0
29/07:30am 25.0 20.5 -0.2 19 11.6 SE 13 28 7 15 1016.0 1015.9 0.0
29/07:00am 23.5 20.3 0.6 22 10.5 SSW 7 15 4 8 1016.0 1015.9 0.0
29/06:30am 21.0 18.1 1.3 27 9.0 WSW 6 9 3 5 1015.7 1015.6 0.0
29/06:00am 20.2 17.1 1.6 29 8.5 SW 7 9 4 5 1015.5 1015.4 0.0
29/05:30am 20.9 17.5 1.7 28 8.8 SW 9 13 5 7 1015.1 1015.0 0.0
29/05:00am 20.6 17.1 1.5 28 8.7 WSW 9 11 5 6 1014.9 1014.8 0.0
29/04:30am 20.3 17.3 1.7 29 8.5 SW 7 11 4 6 1014.8 1014.7 0.0
29/04:00am 20.1 17.0 1.5 29 8.5 SW 7 9 4 5 1014.6 1014.5 0.0
29/03:30am 20.2 17.1 1.6 29 8.5 SSW 7 11 4 6 1014.6 1014.5 0.0
29/03:00am 20.0 16.8 2.8 32 8.0 SSW 9 11 5 6 1014.8 1014.7 0.0
29/02:30am 17.8 15.0 3.3 38 6.7 SW 7 9 4 5 1014.8 1014.7 0.0
29/02:00am 16.8 14.1 2.8 39 6.4 SSW 6 7 3 4 1015.0 1014.9 0.0
29/01:30am 18.0 16.5 3.1 37 6.9 CALM 0 0 0 0 1015.3 1015.2 0.0
29/01:00am 17.4 16.1 4.0 41 6.3 CALM 0 0 0 0 1015.5 1015.4 0.0
29/12:30am 18.3 16.0 3.0 36 7.1 SSE 4 7 2 4 1015.5 1015.4 0.0
29/12:00am 19.5 17.1 4.4 37 7.2 SSE 6 7 3 4 1015.5 1015.4 0.0
 
Date/Time
WST
Temp
°C
App
Temp
°C
Dew
Point
°C
Rel
Hum
%
Delta-T
°C
Wind Press
QNH
hPa
Press
MSL
hPa
Rain since
9am
mm
Dir  Spd
km/h
Gust
km/h
Spd
kts
Gust
kts
28/11:30pm 19.6 16.8 2.0 31 8.1 SSE 6 7 3 4 1015.6 1015.5 0.0
28/11:00pm 21.6 18.6 1.8 27 9.2 E 7 9 4 5 1015.7 1015.6 0.0
28/10:30pm 22.2 19.2 1.8 26 9.5 ESE 7 11 4 6 1015.8 1015.7 0.0
28/10:00pm 20.4 17.6 3.2 32 8.1 ESE 7 11 4 6 1015.8 1015.7 0.0
28/09:30pm 19.6 16.9 2.9 33 7.8 ESE 6 7 3 4 1015.7 1015.6 0.0
28/09:00pm 20.1 17.8 2.5 31 8.2 SE 4 7 2 4 1015.7 1015.6 0.0
28/08:30pm 20.4 17.8 3.2 32 8.1 SE 6 9 3 5 1015.7 1015.6 0.0
28/08:00pm 20.6 18.0 3.3 32 8.2 ESE 6 7 3 4 1015.5 1015.4 0.0
28/07:30pm 21.4 19.1 2.6 29 8.8 ESE 4 6 2 3 1015.2 1015.1 0.0
28/07:00pm 22.1 19.4 2.8 28 9.2 ESE 6 7 3 4 1014.9 1014.8 0.0
28/06:30pm 23.0 20.2 1.9 25 9.9 ESE 6 9 3 5 1014.4 1014.3 0.0
28/06:00pm 24.6 21.7 1.5 22 10.9 ESE 6 9 3 5 1014.0 1013.9 0.0
28/05:30pm 27.3 24.0 0.1 17 12.8 SE 7 15 4 8 1013.7 1013.6 0.0
28/05:00pm 29.2 25.5 -0.1 15 13.9 SE 9 15 5 8 1013.4 1013.3 0.0
28/04:30pm 30.5 26.4 0.0 14 14.6 SSE 11 20 6 11 1013.3 1013.2 0.0
28/04:00pm 31.0 26.5 -0.6 13 15.0 SE 13 20 7 11 1013.0 1012.9 0.0
28/03:30pm 31.8 27.7 0.0 13 15.4 SSE 11 20 6 11 1012.7 1012.6 0.0

Other Formats:

Comma delimited format used in spreadsheet applications
http://www.bom.gov.au/fwo/IDW60801/IDW60801.94100.axf

JavaScript Object Notation format (JSON) in row-major order
http://www.bom.gov.au/fwo/IDW60801/IDW60801.94100.json